createdAt,value
2024-01-04T00:00:27.961Z,63.28
2024-01-04T00:01:27.983Z,58.00
2024-01-04T00:02:28.006Z,61.27
2024-01-04T00:03:28.088Z,59.98
2024-01-04T00:04:28.057Z,58.91
2024-01-04T00:05:28.128Z,59.01
2024-01-04T00:06:28.106Z,60.93
2024-01-04T00:07:28.119Z,57.67
2024-01-04T00:08:28.148Z,58.57
2024-01-04T00:09:28.159Z,59.18
2024-01-04T00:10:28.175Z,58.04
2024-01-04T00:11:28.208Z,58.68
2024-01-04T00:12:28.216Z,57.39
2024-01-04T00:13:28.238Z,59.14
2024-01-04T00:14:28.259Z,57.62
2024-01-04T00:15:28.290Z,58.71
2024-01-04T00:16:28.308Z,56.22
2024-01-04T00:17:28.348Z,58.29
2024-01-04T00:18:28.518Z,62.63
2024-01-04T00:19:28.455Z,55.94
2024-01-04T00:20:28.395Z,57.54
2024-01-04T00:21:28.413Z,59.84
2024-01-04T00:22:28.446Z,58.70
2024-01-04T00:23:28.466Z,58.68
2024-01-04T00:24:28.485Z,59.37
2024-01-04T00:25:28.502Z,55.86
2024-01-04T00:26:28.533Z,58.85
2024-01-04T00:27:28.545Z,58.02
2024-01-04T00:28:28.632Z,58.45
2024-01-04T00:29:28.679Z,60.45
2024-01-04T00:30:28.713Z,59.74
2024-01-04T00:31:28.657Z,58.93
2024-01-04T00:32:28.773Z,59.78
2024-01-04T00:33:28.830Z,58.61
2024-01-04T00:34:28.886Z,57.08
2024-01-04T00:35:28.742Z,56.79
2024-01-04T00:36:28.770Z,57.68
2024-01-04T00:37:28.801Z,53.87
2024-01-04T00:38:28.828Z,57.55
2024-01-04T00:39:28.859Z,58.66
2024-01-04T00:40:28.886Z,56.33
2024-01-04T00:41:28.911Z,56.59
2024-01-04T00:42:28.931Z,56.37
2024-01-04T00:43:28.964Z,59.19
2024-01-04T00:44:28.998Z,57.69
2024-01-04T00:45:29.009Z,58.01
2024-01-04T00:46:29.041Z,57.57
2024-01-04T00:47:29.079Z,56.60
2024-01-04T00:48:29.338Z,59.10
2024-01-04T00:49:29.103Z,56.42
2024-01-04T00:50:29.107Z,56.92
2024-01-04T00:51:29.132Z,54.80
2024-01-04T00:52:29.151Z,54.73
2024-01-04T00:53:29.168Z,58.15
2024-01-04T00:54:29.197Z,56.40
2024-01-04T00:55:29.205Z,52.86
2024-01-04T00:56:29.226Z,56.51
2024-01-04T00:57:29.243Z,56.78
2024-01-04T00:58:29.269Z,59.30
2024-01-04T00:59:29.288Z,56.74
2024-01-04T01:00:29.302Z,55.58
2024-01-04T01:01:29.328Z,56.52
2024-01-04T01:02:29.360Z,55.08
2024-01-04T01:03:29.530Z,57.21
2024-01-04T01:04:29.381Z,59.11
2024-01-04T01:05:29.408Z,58.12
2024-01-04T01:06:29.487Z,55.86
2024-01-04T01:07:29.440Z,56.39
2024-01-04T01:08:29.474Z,54.95
2024-01-04T01:09:29.497Z,54.70
2024-01-04T01:10:29.528Z,56.04
2024-01-04T01:11:29.539Z,55.02
2024-01-04T01:12:29.659Z,56.13
2024-01-04T01:13:29.597Z,55.26
2024-01-04T01:14:29.617Z,56.35
2024-01-04T01:15:29.651Z,57.44
2024-01-04T01:16:29.665Z,56.64
2024-01-04T01:17:29.773Z,55.08
2024-01-04T01:18:29.800Z,56.61
2024-01-04T01:19:29.837Z,56.65
2024-01-04T01:20:29.757Z,56.49
2024-01-04T01:21:29.787Z,56.49
2024-01-04T01:22:29.802Z,55.68
2024-01-04T01:23:29.842Z,53.73
2024-01-04T01:24:29.850Z,54.27
2024-01-04T01:25:29.869Z,57.36
2024-01-04T01:26:29.889Z,54.21
2024-01-04T01:27:29.906Z,56.96
2024-01-04T01:28:29.938Z,52.42
2024-01-04T01:29:29.978Z,56.17
2024-01-04T01:30:30.044Z,56.30
2024-01-04T01:31:30.002Z,56.26
2024-01-04T01:32:30.049Z,54.43
2024-01-04T01:33:30.200Z,54.11
2024-01-04T01:34:30.080Z,55.05
2024-01-04T01:35:30.074Z,58.64
2024-01-04T01:36:30.109Z,54.70
2024-01-04T01:37:30.119Z,55.20
2024-01-04T01:38:30.159Z,53.67
2024-01-04T01:39:30.185Z,57.23
2024-01-04T01:40:30.192Z,56.65
2024-01-04T01:41:30.199Z,55.84
2024-01-04T01:42:30.227Z,55.57
2024-01-04T01:43:30.253Z,56.15
2024-01-04T01:44:30.280Z,53.36
2024-01-04T01:45:30.304Z,54.98
2024-01-04T01:46:30.382Z,54.81
2024-01-04T01:47:30.378Z,53.18
2024-01-04T01:48:30.538Z,54.78
2024-01-04T01:49:30.520Z,55.87
2024-01-04T01:50:30.418Z,55.29
2024-01-04T01:51:30.438Z,55.04
2024-01-04T01:52:30.457Z,53.95
2024-01-04T01:53:30.485Z,55.51
2024-01-04T01:54:30.513Z,54.94
2024-01-04T01:55:30.521Z,56.27
2024-01-04T01:56:30.555Z,55.41
2024-01-04T01:57:30.563Z,56.62
2024-01-04T01:58:30.602Z,56.02
2024-01-04T01:59:30.628Z,53.68
2024-01-04T02:00:30.645Z,55.62
2024-01-04T02:01:30.696Z,55.99
2024-01-04T02:02:30.708Z,55.39
2024-01-04T02:03:30.804Z,54.50
2024-01-04T02:04:30.739Z,55.72
2024-01-04T02:05:30.922Z,55.18
2024-01-04T02:06:30.864Z,55.92
2024-01-04T02:07:30.808Z,55.24
2024-01-04T02:08:30.838Z,58.07
2024-01-04T02:09:30.854Z,57.24
2024-01-04T02:10:31.869Z,54.44
2024-01-04T02:11:30.849Z,53.67
2024-01-04T02:12:30.866Z,57.25
2024-01-04T02:13:30.858Z,56.80
2024-01-04T02:14:30.851Z,55.37
2024-01-04T02:15:30.873Z,56.83
2024-01-04T02:16:30.863Z,53.80
2024-01-04T02:17:30.868Z,56.75
2024-01-04T02:18:30.937Z,57.19
2024-01-04T02:19:30.881Z,56.19
2024-01-04T02:20:30.842Z,55.28
2024-01-04T02:21:30.846Z,56.35
2024-01-04T02:22:30.849Z,55.06
2024-01-04T02:23:30.842Z,55.99
2024-01-04T02:24:30.842Z,57.47
2024-01-04T02:25:30.831Z,55.55
2024-01-04T02:26:30.829Z,56.32
2024-01-04T02:27:30.836Z,52.06
2024-01-04T02:28:30.851Z,56.00
2024-01-04T02:29:30.833Z,55.06
2024-01-04T02:30:30.877Z,58.60
2024-01-04T02:31:30.856Z,57.75
2024-01-04T02:32:30.944Z,55.43
2024-01-04T02:33:30.999Z,56.15
2024-01-04T02:34:30.962Z,55.52
2024-01-04T02:35:30.939Z,56.51
2024-01-04T02:36:30.983Z,55.32
2024-01-04T02:37:31.001Z,57.08
2024-01-04T02:38:31.007Z,56.47
2024-01-04T02:39:31.048Z,55.16
2024-01-04T02:40:31.050Z,55.62
2024-01-04T02:41:31.072Z,54.07
2024-01-04T02:42:31.105Z,55.96
2024-01-04T02:43:31.118Z,55.14
2024-01-04T02:44:31.146Z,54.35
2024-01-04T02:45:31.185Z,56.43
2024-01-04T02:46:31.213Z,55.83
2024-01-04T02:47:31.282Z,53.71
2024-01-04T02:48:31.402Z,55.35
2024-01-04T02:49:31.306Z,55.83
2024-01-04T02:50:31.303Z,55.48
2024-01-04T02:51:31.313Z,56.61
2024-01-04T02:52:31.348Z,54.42
2024-01-04T02:53:31.373Z,58.10
2024-01-04T02:54:31.395Z,56.74
2024-01-04T02:55:31.410Z,54.72
2024-01-04T02:56:32.646Z,53.89
2024-01-04T02:57:31.447Z,55.96
2024-01-04T02:58:31.476Z,58.17
2024-01-04T02:59:31.503Z,54.50
2024-01-04T03:00:31.527Z,58.90
2024-01-04T03:01:31.545Z,55.47
2024-01-04T03:02:31.575Z,55.37
2024-01-04T03:03:31.612Z,58.33
2024-01-04T03:04:31.617Z,55.20
2024-01-04T03:05:31.644Z,54.62
2024-01-04T03:06:31.668Z,55.90
2024-01-04T03:07:31.692Z,57.50
2024-01-04T03:08:31.725Z,56.42
2024-01-04T03:09:31.738Z,55.56
2024-01-04T03:10:31.777Z,55.16
2024-01-04T03:11:31.800Z,55.58
2024-01-04T03:12:31.821Z,55.37
2024-01-04T03:13:31.865Z,58.47
2024-01-04T03:14:31.922Z,56.09
2024-01-04T03:15:31.902Z,56.43
2024-01-04T03:16:31.927Z,55.62
2024-01-04T03:17:31.993Z,56.96
2024-01-04T03:18:32.206Z,54.68
2024-01-04T03:19:32.072Z,54.44
2024-01-04T03:20:32.050Z,57.10
2024-01-04T03:21:32.052Z,55.95
2024-01-04T03:22:32.088Z,56.64
2024-01-04T03:23:32.125Z,56.54
2024-01-04T03:24:32.142Z,55.41
2024-01-04T03:25:32.185Z,55.21
2024-01-04T03:26:32.231Z,55.14
2024-01-04T03:27:32.238Z,52.52
2024-01-04T03:28:32.269Z,55.49
2024-01-04T03:29:32.322Z,52.77
2024-01-04T03:30:32.420Z,52.45
2024-01-04T03:31:32.350Z,52.57
2024-01-04T03:32:32.587Z,53.50
2024-01-04T03:33:32.480Z,52.73
2024-01-04T03:34:32.545Z,55.21
2024-01-04T03:35:32.530Z,54.27
2024-01-04T03:36:32.487Z,54.25
2024-01-04T03:37:32.513Z,56.80
2024-01-04T03:38:32.677Z,56.32
2024-01-04T03:39:32.556Z,56.36
2024-01-04T03:40:32.590Z,54.08
2024-01-04T03:41:32.740Z,55.56
2024-01-04T03:42:32.643Z,54.88
2024-01-04T03:43:32.694Z,57.50
2024-01-04T03:44:32.804Z,56.04
2024-01-04T03:45:33.715Z,56.09
2024-01-04T03:46:32.705Z,56.16
2024-01-04T03:47:32.804Z,54.41
2024-01-04T03:48:33.809Z,57.40
2024-01-04T03:49:32.721Z,56.15
2024-01-04T03:50:32.802Z,56.60
2024-01-04T03:51:32.721Z,52.77
2024-01-04T03:52:32.722Z,53.30
2024-01-04T03:53:32.708Z,58.16
2024-01-04T03:54:32.690Z,54.53
2024-01-04T03:55:32.693Z,55.48
2024-01-04T03:56:32.695Z,54.86
2024-01-04T03:57:32.680Z,51.13
2024-01-04T03:58:32.685Z,54.39
2024-01-04T03:59:32.695Z,56.19
2024-01-04T04:00:32.716Z,51.85
2024-01-04T04:01:32.725Z,55.18
2024-01-04T04:02:32.678Z,54.70
2024-01-04T04:03:32.788Z,56.46
2024-01-04T04:04:32.678Z,56.05
2024-01-04T04:05:32.736Z,57.01
2024-01-04T04:06:32.693Z,56.66
2024-01-04T04:07:32.753Z,55.31
2024-01-04T04:08:32.744Z,56.19
2024-01-04T04:09:32.848Z,56.06
2024-01-04T04:10:32.780Z,55.73
2024-01-04T04:11:32.812Z,57.69
2024-01-04T04:12:32.831Z,57.27
2024-01-04T04:13:32.849Z,56.27
2024-01-04T04:14:32.892Z,56.00
2024-01-04T04:15:32.918Z,56.74
2024-01-04T04:16:32.924Z,55.19
2024-01-04T04:17:32.974Z,55.63
2024-01-04T04:18:33.060Z,55.92
2024-01-04T04:19:33.035Z,55.60
2024-01-04T04:20:33.112Z,56.42
2024-01-04T04:21:33.064Z,56.57
2024-01-04T04:22:33.060Z,55.00
2024-01-04T04:23:33.267Z,57.61
2024-01-04T04:24:33.105Z,56.37
2024-01-04T04:25:33.144Z,56.29
2024-01-04T04:26:33.254Z,58.17
2024-01-04T04:27:33.186Z,56.43
2024-01-04T04:28:33.205Z,56.08
2024-01-04T04:29:33.280Z,56.33
2024-01-04T04:30:33.346Z,54.46
2024-01-04T04:31:33.284Z,53.92
2024-01-04T04:32:33.368Z,56.86
2024-01-04T04:33:33.474Z,54.93
2024-01-04T04:34:33.376Z,57.57
2024-01-04T04:35:36.846Z,54.02
2024-01-04T04:36:34.431Z,54.04
2024-01-04T04:37:33.389Z,54.36
2024-01-04T04:38:33.474Z,53.44
2024-01-04T04:39:33.391Z,55.74
2024-01-04T04:40:33.393Z,55.88
2024-01-04T04:41:33.441Z,56.10
2024-01-04T04:42:33.404Z,56.11
2024-01-04T04:43:33.420Z,55.98
2024-01-04T04:44:33.476Z,55.85
2024-01-04T04:45:33.419Z,54.28
2024-01-04T04:46:33.429Z,55.52
2024-01-04T04:47:33.482Z,54.99
2024-01-04T04:48:33.536Z,54.44
2024-01-04T04:49:33.627Z,55.61
2024-01-04T04:50:33.567Z,54.88
2024-01-04T04:51:33.458Z,56.09
2024-01-04T04:52:33.452Z,52.56
2024-01-04T04:53:33.642Z,56.02
2024-01-04T04:54:33.450Z,56.10
2024-01-04T04:55:40.816Z,50.00
2024-01-04T04:56:40.833Z,50.00
2024-01-04T04:57:40.806Z,50.00
2024-01-04T04:58:40.821Z,50.00
2024-01-04T04:59:40.847Z,50.00
2024-01-04T05:00:40.841Z,53.46
2024-01-04T05:01:40.819Z,51.80
2024-01-04T05:02:40.834Z,51.14
2024-01-04T05:03:40.906Z,54.05
2024-01-04T05:04:40.829Z,52.61
2024-01-04T05:05:40.937Z,54.88
2024-01-04T05:06:40.928Z,52.96
2024-01-04T05:07:40.847Z,54.32
2024-01-04T05:08:40.877Z,54.30
2024-01-04T05:09:40.855Z,53.83
2024-01-04T05:10:40.864Z,55.76
2024-01-04T05:11:40.911Z,52.12
2024-01-04T05:12:41.025Z,52.84
2024-01-04T05:13:40.896Z,53.18
2024-01-04T05:14:40.889Z,54.43
2024-01-04T05:15:40.873Z,53.61
2024-01-04T05:16:40.878Z,53.25
2024-01-04T05:17:40.961Z,52.69
2024-01-04T05:18:41.052Z,50.26
2024-01-04T05:19:40.919Z,52.34
2024-01-04T05:20:40.944Z,54.71
2024-01-04T05:21:40.919Z,55.09
2024-01-04T05:22:40.913Z,54.79
2024-01-04T05:23:40.933Z,51.86
2024-01-04T05:24:40.922Z,51.18
2024-01-04T05:25:42.143Z,54.48
2024-01-04T05:26:40.976Z,53.51
2024-01-04T05:27:40.939Z,51.55
2024-01-04T05:28:40.937Z,54.71
2024-01-04T05:29:40.997Z,54.29
2024-01-04T05:30:40.997Z,53.28
2024-01-04T05:31:40.985Z,52.40
2024-01-04T05:32:41.060Z,52.71
2024-01-04T05:33:41.082Z,54.37
2024-01-04T05:34:41.038Z,56.05
2024-01-04T05:35:41.000Z,56.48
2024-01-04T05:36:40.997Z,54.80
2024-01-04T05:37:41.001Z,55.02
2024-01-04T05:38:41.031Z,54.49
2024-01-04T05:39:41.015Z,52.22
2024-01-04T05:40:41.013Z,53.72
2024-01-04T05:41:41.082Z,55.79
2024-01-04T05:42:41.062Z,55.45
2024-01-04T05:43:41.032Z,54.50
2024-01-04T05:44:41.059Z,54.90
2024-01-04T05:45:41.033Z,54.33
2024-01-04T05:46:41.064Z,54.70
2024-01-04T05:47:41.142Z,54.94
2024-01-04T05:48:41.190Z,53.49
2024-01-04T05:49:41.189Z,54.56
2024-01-04T05:50:41.212Z,53.11
2024-01-04T05:51:42.953Z,56.58
2024-01-04T05:52:41.229Z,55.01
2024-01-04T05:53:41.305Z,52.41
2024-01-04T05:54:41.293Z,55.03
2024-01-04T05:55:41.328Z,54.40
2024-01-04T05:56:41.405Z,53.98
2024-01-04T05:57:41.386Z,52.63
2024-01-04T05:58:41.409Z,53.30
2024-01-04T05:59:41.451Z,53.21
2024-01-04T06:00:41.530Z,52.89
2024-01-04T06:01:41.514Z,54.33
2024-01-04T06:02:41.597Z,53.80
2024-01-04T06:03:41.651Z,55.35
2024-01-04T06:04:41.580Z,53.48
2024-01-04T06:05:41.714Z,57.07
2024-01-04T06:06:41.684Z,54.92
2024-01-04T06:07:41.670Z,56.03
2024-01-04T06:08:41.725Z,54.69
2024-01-04T06:09:41.740Z,53.41
2024-01-04T06:10:41.766Z,53.67
2024-01-04T06:11:41.811Z,55.02
2024-01-04T06:12:41.805Z,56.53
2024-01-04T06:13:41.911Z,53.50
2024-01-04T06:14:41.935Z,53.91
2024-01-04T06:15:41.897Z,54.22
2024-01-04T06:16:41.933Z,54.15
2024-01-04T06:17:42.084Z,56.55
2024-01-04T06:18:42.134Z,54.99
2024-01-04T06:19:42.105Z,54.11
2024-01-04T06:20:42.075Z,54.27
2024-01-04T06:21:42.061Z,55.24
2024-01-04T06:22:42.083Z,54.27
2024-01-04T06:23:42.180Z,54.72
2024-01-04T06:24:42.158Z,54.41
2024-01-04T06:25:42.195Z,54.83
2024-01-04T06:26:42.250Z,53.35
2024-01-04T06:27:42.323Z,54.49
2024-01-04T06:28:42.282Z,53.92
2024-01-04T06:29:42.333Z,54.80
2024-01-04T06:30:42.384Z,53.54
2024-01-04T06:31:42.363Z,51.98
2024-01-04T06:32:42.636Z,54.51
2024-01-04T06:33:42.601Z,51.15
2024-01-04T06:34:42.580Z,57.81
2024-01-04T06:35:42.488Z,55.56
2024-01-04T06:36:42.492Z,55.20
2024-01-04T06:37:42.528Z,56.63
2024-01-04T06:38:42.622Z,56.72
2024-01-04T06:39:42.582Z,57.84
2024-01-04T06:40:42.619Z,53.83
2024-01-04T06:41:42.669Z,56.41
2024-01-04T06:42:42.657Z,52.64
2024-01-04T06:43:42.694Z,55.60
2024-01-04T06:44:47.339Z,56.45
2024-01-04T06:45:43.769Z,55.08
2024-01-04T06:46:42.724Z,55.68
2024-01-04T06:47:42.841Z,56.49
2024-01-04T06:48:43.007Z,56.54
2024-01-04T06:49:43.011Z,56.25
2024-01-04T06:50:42.862Z,55.36
2024-01-04T06:51:42.741Z,55.39
2024-01-04T06:52:42.751Z,52.81
2024-01-04T06:53:42.778Z,56.19
2024-01-04T06:54:42.783Z,53.25
2024-01-04T06:55:42.761Z,53.27
2024-01-04T06:56:42.790Z,56.36
2024-01-04T06:57:42.775Z,55.02
2024-01-04T06:58:42.774Z,52.96
2024-01-04T06:59:42.804Z,56.21
2024-01-04T07:00:42.903Z,55.60
2024-01-04T07:01:42.850Z,56.08
2024-01-04T07:02:42.814Z,54.05
2024-01-04T07:03:42.891Z,55.82
2024-01-04T07:04:42.804Z,55.88
2024-01-04T07:05:42.933Z,55.07
2024-01-04T07:06:42.814Z,54.02
2024-01-04T07:07:42.862Z,55.07
2024-01-04T07:08:42.930Z,55.14
2024-01-04T07:09:42.906Z,53.53
2024-01-04T07:10:42.924Z,56.24
2024-01-04T07:11:42.999Z,54.56
2024-01-04T07:12:42.983Z,57.50
2024-01-04T07:13:43.013Z,56.53
2024-01-04T07:14:43.089Z,54.70
2024-01-04T07:15:43.072Z,52.94
2024-01-04T07:16:43.100Z,54.06
2024-01-04T07:17:43.226Z,54.09
2024-01-04T07:18:43.265Z,55.20
2024-01-04T07:19:43.200Z,55.54
2024-01-04T07:20:43.322Z,52.63
2024-01-04T07:21:43.248Z,54.67
2024-01-04T07:22:43.299Z,53.47
2024-01-04T07:23:43.367Z,55.47
2024-01-04T07:24:43.333Z,54.58
2024-01-04T07:25:43.348Z,56.26
2024-01-04T07:26:43.383Z,57.88
2024-01-04T07:27:44.963Z,55.59
2024-01-04T07:28:43.368Z,53.65
2024-01-04T07:29:43.417Z,55.81
2024-01-04T07:30:43.756Z,54.28
2024-01-04T07:31:43.359Z,57.20
2024-01-04T07:32:43.467Z,56.27
2024-01-04T07:33:43.492Z,51.52
2024-01-04T07:34:46.007Z,53.08
2024-01-04T07:35:43.450Z,53.21
2024-01-04T07:36:43.377Z,53.55
2024-01-04T07:37:43.364Z,54.63
2024-01-04T07:38:43.395Z,55.79
2024-01-04T07:39:43.388Z,54.68
2024-01-04T07:40:43.383Z,54.15
2024-01-04T07:41:43.394Z,55.01
2024-01-04T07:42:43.388Z,56.53
2024-01-04T07:43:43.396Z,55.97
2024-01-04T07:44:50.531Z,53.26
2024-01-04T07:45:44.403Z,53.13
2024-01-04T07:46:43.420Z,53.55
2024-01-04T07:47:43.445Z,55.00
2024-01-04T07:48:43.524Z,54.90
2024-01-04T07:49:43.451Z,56.55
2024-01-04T07:50:43.406Z,56.20
2024-01-04T07:51:43.364Z,54.59
2024-01-04T07:52:43.363Z,55.87
2024-01-04T07:53:43.372Z,54.98
2024-01-04T07:54:48.466Z,53.23
2024-01-04T07:55:44.358Z,53.36
2024-01-04T07:56:43.435Z,53.75
2024-01-04T07:57:43.371Z,53.71
2024-01-04T07:58:43.360Z,54.44
2024-01-04T07:59:43.379Z,54.96
2024-01-04T08:00:43.369Z,54.93
2024-01-04T08:01:43.393Z,56.00
2024-01-04T08:02:43.391Z,54.95
2024-01-04T08:03:43.415Z,55.25
2024-01-04T08:04:43.374Z,55.72
2024-01-04T08:05:43.542Z,53.71
2024-01-04T08:06:43.498Z,55.16
2024-01-04T08:07:43.383Z,53.95
2024-01-04T08:08:43.418Z,55.00
2024-01-04T08:09:43.400Z,54.64
2024-01-04T08:10:43.379Z,51.99
2024-01-04T08:11:43.436Z,58.30
2024-01-04T08:12:43.682Z,56.19
2024-01-04T08:13:43.384Z,57.55
2024-01-04T08:14:43.457Z,52.91
2024-01-04T08:15:43.390Z,54.13
2024-01-04T08:16:43.377Z,54.62
2024-01-04T08:17:43.520Z,54.24
2024-01-04T08:18:43.484Z,54.93
2024-01-04T08:19:43.503Z,55.98
2024-01-04T08:20:43.488Z,53.89
2024-01-04T08:21:43.466Z,52.45
2024-01-04T08:22:43.416Z,54.87
2024-01-04T08:23:43.503Z,53.04
2024-01-04T08:24:43.452Z,58.03
2024-01-04T08:25:43.417Z,56.05
2024-01-04T08:26:43.507Z,54.82
2024-01-04T08:27:43.428Z,57.24
2024-01-04T08:28:43.433Z,55.46
2024-01-04T08:29:43.476Z,54.89
2024-01-04T08:30:43.583Z,53.90
2024-01-04T08:31:43.570Z,54.16
2024-01-04T08:32:43.626Z,56.11
2024-01-04T08:33:43.668Z,52.32
2024-01-04T08:34:43.622Z,54.93
2024-01-04T08:35:43.661Z,54.57
2024-01-04T08:36:43.657Z,51.29
2024-01-04T08:37:43.694Z,52.66
2024-01-04T08:38:43.741Z,55.33
2024-01-04T08:39:44.127Z,55.31
2024-01-04T08:40:43.793Z,53.94
2024-01-04T08:41:43.844Z,53.34
2024-01-04T08:42:43.859Z,54.28
2024-01-04T08:43:43.895Z,53.27
2024-01-04T08:44:43.932Z,54.22
2024-01-04T08:45:43.961Z,51.94
2024-01-04T08:46:43.989Z,53.21
2024-01-04T08:47:44.102Z,52.04
2024-01-04T08:48:44.263Z,53.08
2024-01-04T08:49:44.204Z,53.93
2024-01-04T08:50:44.355Z,56.14
2024-01-04T08:51:44.205Z,55.78
2024-01-04T08:52:44.162Z,55.58
2024-01-04T08:53:44.191Z,53.27
2024-01-04T08:54:44.234Z,55.72
2024-01-04T08:55:44.259Z,56.12
2024-01-04T08:56:44.375Z,57.11
2024-01-04T08:57:44.319Z,54.62
2024-01-04T08:58:44.343Z,52.77
2024-01-04T08:59:44.429Z,53.40
2024-01-04T09:00:44.429Z,58.12
2024-01-04T09:01:44.428Z,56.09
2024-01-04T09:02:44.573Z,57.92
2024-01-04T09:03:44.574Z,54.10
2024-01-04T09:04:44.621Z,55.74
2024-01-04T09:05:44.600Z,54.97
2024-01-04T09:06:44.581Z,54.70
2024-01-04T09:07:44.604Z,55.32
2024-01-04T09:08:44.670Z,52.71
2024-01-04T09:09:44.671Z,54.87
2024-01-04T09:10:44.703Z,55.62
2024-01-04T09:11:44.800Z,53.15
2024-01-04T09:12:46.720Z,54.36
2024-01-04T09:13:44.763Z,54.92
2024-01-04T09:14:44.848Z,54.69
2024-01-04T09:15:44.813Z,56.91
2024-01-04T09:16:44.865Z,55.72
2024-01-04T09:17:45.052Z,53.69
2024-01-04T09:18:45.028Z,53.44
2024-01-04T09:19:45.141Z,54.90
2024-01-04T09:20:44.990Z,55.63
2024-01-04T09:21:45.006Z,55.84
2024-01-04T09:22:45.055Z,57.37
2024-01-04T09:23:45.072Z,56.22
2024-01-04T09:24:45.084Z,56.99
2024-01-04T09:25:45.112Z,55.54
2024-01-04T09:26:45.138Z,55.83
2024-01-04T09:27:45.159Z,55.36
2024-01-04T09:28:45.186Z,55.54
2024-01-04T09:29:45.250Z,56.10
2024-01-04T09:30:45.272Z,56.60
2024-01-04T09:31:45.266Z,53.94
2024-01-04T09:32:45.388Z,55.36
2024-01-04T09:33:45.420Z,57.22
2024-01-04T09:34:45.381Z,57.37
2024-01-04T09:35:45.371Z,54.95
2024-01-04T09:36:45.391Z,55.22
2024-01-04T09:37:45.388Z,54.57
2024-01-04T09:38:45.459Z,58.62
2024-01-04T09:39:45.447Z,55.59
2024-01-04T09:40:45.461Z,56.73
2024-01-04T09:41:45.552Z,53.82
2024-01-04T09:42:45.517Z,54.74
2024-01-04T09:43:45.636Z,51.93
2024-01-04T09:44:45.591Z,56.65
2024-01-04T09:45:45.615Z,56.01
2024-01-04T09:46:45.617Z,57.22
2024-01-04T09:47:45.697Z,55.77
2024-01-04T09:48:45.798Z,54.43
2024-01-04T09:49:45.871Z,56.78
2024-01-04T09:50:45.828Z,58.29
2024-01-04T09:51:45.748Z,57.22
2024-01-04T09:52:45.751Z,55.73
2024-01-04T09:53:45.792Z,54.97
2024-01-04T09:54:45.803Z,57.24
2024-01-04T09:55:46.518Z,55.68
2024-01-04T09:56:45.919Z,56.59
2024-01-04T09:57:45.897Z,57.51
2024-01-04T09:58:45.900Z,56.76
2024-01-04T09:59:45.974Z,59.36
2024-01-04T10:00:45.986Z,58.68
2024-01-04T10:01:45.956Z,56.67
2024-01-04T10:02:46.104Z,57.98
2024-01-04T10:03:46.089Z,58.75
2024-01-04T10:04:46.029Z,57.26
2024-01-04T10:05:46.209Z,54.22
2024-01-04T10:06:46.182Z,54.29
2024-01-04T10:07:46.082Z,57.56
2024-01-04T10:08:46.128Z,58.18
2024-01-04T10:09:46.128Z,53.68
2024-01-04T10:10:46.155Z,58.41
2024-01-04T10:11:46.219Z,57.19
2024-01-04T10:12:46.266Z,57.14
2024-01-04T10:13:46.234Z,54.35
2024-01-04T10:14:46.340Z,57.24
2024-01-04T10:15:46.275Z,58.73
2024-01-04T10:16:46.306Z,57.54
2024-01-04T10:17:46.453Z,57.22
2024-01-04T10:18:46.459Z,55.69
2024-01-04T10:19:46.415Z,58.20
2024-01-04T10:20:46.423Z,57.71
2024-01-04T10:21:47.609Z,55.68
2024-01-04T10:22:46.467Z,57.96
2024-01-04T10:23:46.491Z,56.01
2024-01-04T10:24:46.571Z,58.88
2024-01-04T10:25:46.541Z,55.78
2024-01-04T10:26:46.581Z,54.78
2024-01-04T10:27:46.588Z,56.21
2024-01-04T10:28:46.631Z,58.41
2024-01-04T10:29:46.684Z,55.62
2024-01-04T10:30:46.789Z,58.29
2024-01-04T10:31:46.697Z,55.69
2024-01-04T10:32:46.750Z,58.41
2024-01-04T10:33:46.886Z,55.97
2024-01-04T10:34:46.812Z,58.08
2024-01-04T10:35:46.818Z,57.93
2024-01-04T10:36:46.842Z,56.50
2024-01-04T10:37:46.845Z,58.23
2024-01-04T10:38:46.884Z,57.82
2024-01-04T10:39:47.275Z,57.15
2024-01-04T10:40:46.930Z,60.29
2024-01-04T10:41:46.992Z,58.04
2024-01-04T10:42:46.975Z,55.80
2024-01-04T10:43:47.003Z,56.45
2024-01-04T10:44:47.198Z,57.58
2024-01-04T10:45:47.053Z,57.00
2024-01-04T10:46:47.076Z,57.03
2024-01-04T10:47:47.199Z,54.01
2024-01-04T10:48:47.227Z,56.78
2024-01-04T10:49:47.279Z,59.64
2024-01-04T10:50:47.202Z,57.48
2024-01-04T10:51:47.220Z,56.83
2024-01-04T10:52:47.228Z,57.37
2024-01-04T10:53:47.284Z,59.16
2024-01-04T10:54:47.296Z,56.73
2024-01-04T10:55:47.316Z,57.84
2024-01-04T10:56:47.373Z,57.83
2024-01-04T10:57:47.375Z,59.95
2024-01-04T10:58:47.399Z,55.94
2024-01-04T10:59:47.497Z,57.79
2024-01-04T11:00:47.481Z,57.69
2024-01-04T11:01:47.496Z,57.33
2024-01-04T11:02:47.561Z,58.20
2024-01-04T11:03:47.594Z,57.49
2024-01-04T11:04:47.591Z,57.63
2024-01-04T11:05:47.695Z,59.51
2024-01-04T11:06:47.627Z,58.46
2024-01-04T11:07:47.660Z,59.39
2024-01-04T11:08:47.713Z,59.71
2024-01-04T11:09:47.710Z,58.98
2024-01-04T11:10:47.733Z,57.05
2024-01-04T11:11:47.782Z,56.93
2024-01-04T11:12:47.802Z,60.77
2024-01-04T11:13:47.817Z,59.64
2024-01-04T11:14:47.877Z,56.38
2024-01-04T11:15:47.875Z,57.67
2024-01-04T11:16:47.898Z,55.88
2024-01-04T11:17:48.069Z,59.41
2024-01-04T11:18:48.079Z,57.85
2024-01-04T11:19:48.621Z,59.91
2024-01-04T11:20:48.109Z,61.23
2024-01-04T11:21:48.041Z,58.03
2024-01-04T11:22:48.101Z,60.67
2024-01-04T11:23:48.122Z,59.39
2024-01-04T11:24:48.109Z,59.68
2024-01-04T11:25:48.152Z,59.49
2024-01-04T11:26:48.375Z,58.33
2024-01-04T11:27:48.197Z,59.44
2024-01-04T11:28:48.245Z,59.29
2024-01-04T11:29:48.267Z,60.05
2024-01-04T11:30:48.374Z,60.22
2024-01-04T11:31:48.319Z,60.67
2024-01-04T11:33:48.460Z,55.73
2024-01-04T11:34:48.521Z,58.08
2024-01-04T11:35:48.449Z,59.49
2024-01-04T11:36:48.410Z,61.00
2024-01-04T11:37:48.435Z,60.50
2024-01-04T11:38:48.533Z,59.64
2024-01-04T11:39:48.489Z,60.65
2024-01-04T11:40:48.517Z,59.70
2024-01-04T11:41:48.562Z,60.17
2024-01-04T11:42:48.546Z,57.46
2024-01-04T11:43:48.573Z,57.56
2024-01-04T11:44:48.615Z,62.36
2024-01-04T11:45:48.609Z,63.38
2024-01-04T11:46:48.677Z,60.48
2024-01-04T11:47:48.958Z,61.99
2024-01-04T11:48:48.767Z,60.12
2024-01-04T11:49:55.897Z,59.62
2024-01-04T11:50:49.726Z,59.69
2024-01-04T11:51:48.713Z,60.01
2024-01-04T11:52:48.718Z,60.08
2024-01-04T11:53:48.744Z,61.52
2024-01-04T11:54:48.746Z,61.31
2024-01-04T11:55:48.771Z,60.56
2024-01-04T11:56:49.152Z,60.21
2024-01-04T11:57:48.748Z,61.23
2024-01-04T11:58:48.759Z,59.72
2024-01-04T11:59:48.781Z,62.83
2024-01-04T12:00:48.806Z,61.36
2024-01-04T12:01:49.332Z,58.76
2024-01-04T12:02:48.805Z,59.21
2024-01-04T12:03:48.792Z,62.15
2024-01-04T12:04:48.859Z,61.68
2024-01-04T12:05:48.827Z,61.11
2024-01-04T12:06:48.785Z,63.22
2024-01-04T12:07:48.801Z,62.61
2024-01-04T12:08:48.847Z,61.19
2024-01-04T12:09:48.848Z,62.46
2024-01-04T12:10:48.809Z,62.84
2024-01-04T12:11:48.848Z,60.96
2024-01-04T12:12:48.823Z,61.20
2024-01-04T12:13:48.829Z,60.45
2024-01-04T12:14:48.840Z,59.44
2024-01-04T12:15:48.835Z,60.67
2024-01-04T12:16:48.836Z,61.69
2024-01-04T12:17:49.127Z,60.84
2024-01-04T12:18:48.986Z,60.69
2024-01-04T12:19:49.059Z,59.94
2024-01-04T12:20:48.965Z,63.52
2024-01-04T12:21:49.058Z,60.94
2024-01-04T12:22:49.005Z,62.29
2024-01-04T12:23:49.042Z,61.83
2024-01-04T12:24:49.061Z,62.39
2024-01-04T12:25:49.094Z,62.98
2024-01-04T12:26:49.196Z,59.26
2024-01-04T12:27:49.137Z,61.75
2024-01-04T12:28:49.163Z,62.69
2024-01-04T12:29:49.235Z,61.82
2024-01-04T12:30:49.516Z,60.33
2024-01-04T12:31:49.347Z,59.07
2024-01-04T12:32:50.195Z,59.99
2024-01-04T12:33:49.432Z,61.07
2024-01-04T12:34:49.442Z,58.34
2024-01-04T12:35:49.368Z,61.73
2024-01-04T12:36:49.387Z,60.31
2024-01-04T12:37:49.403Z,60.94
2024-01-04T12:38:49.437Z,58.07
2024-01-04T12:39:49.455Z,60.95
2024-01-04T12:40:49.482Z,62.54
2024-01-04T12:41:49.538Z,63.11
2024-01-04T12:42:49.551Z,62.22
2024-01-04T12:43:49.557Z,61.11
2024-01-04T12:44:49.600Z,60.13
2024-01-04T12:45:49.606Z,61.74
2024-01-04T12:46:49.649Z,60.41
2024-01-04T12:47:49.787Z,62.65
2024-01-04T12:48:49.916Z,61.01
2024-01-04T12:49:49.756Z,60.43
2024-01-04T12:50:49.764Z,64.33
2024-01-04T12:51:49.783Z,60.70
2024-01-04T12:52:49.798Z,61.94
2024-01-04T12:53:49.888Z,62.38